sensor_id;sensor_type;location;lat;lon;timestamp;P1;durP1;ratioP1;P2;durP2;ratioP2
10142;SDS011;5112;54.088;13.446;2022-07-17T00:05:47;4.47;;;1.90;;
10142;SDS011;5112;54.088;13.446;2022-07-17T00:15:50;4.40;;;2.00;;
10142;SDS011;5112;54.088;13.446;2022-07-17T00:25:52;3.90;;;1.90;;
10142;SDS011;5112;54.088;13.446;2022-07-17T00:35:55;4.13;;;1.83;;
10142;SDS011;5112;54.088;13.446;2022-07-17T00:45:57;4.17;;;2.00;;
10142;SDS011;5112;54.088;13.446;2022-07-17T00:56:02;3.53;;;2.03;;
10142;SDS011;5112;54.088;13.446;2022-07-17T01:06:05;3.03;;;1.70;;
10142;SDS011;5112;54.088;13.446;2022-07-17T01:16:09;3.73;;;1.90;;
10142;SDS011;5112;54.088;13.446;2022-07-17T01:26:13;3.97;;;2.23;;
10142;SDS011;5112;54.088;13.446;2022-07-17T01:36:14;2.80;;;1.80;;
10142;SDS011;5112;54.088;13.446;2022-07-17T01:46:17;4.40;;;1.73;;
10142;SDS011;5112;54.088;13.446;2022-07-17T01:56:19;4.05;;;2.15;;
10142;SDS011;5112;54.088;13.446;2022-07-17T02:06:22;4.13;;;1.67;;
10142;SDS011;5112;54.088;13.446;2022-07-17T02:16:24;4.70;;;1.93;;
10142;SDS011;5112;54.088;13.446;2022-07-17T02:26:27;3.35;;;1.75;;
10142;SDS011;5112;54.088;13.446;2022-07-17T02:36:29;3.70;;;1.87;;
10142;SDS011;5112;54.088;13.446;2022-07-17T02:46:32;3.13;;;1.80;;
10142;SDS011;5112;54.088;13.446;2022-07-17T02:56:34;2.40;;;1.67;;
10142;SDS011;5112;54.088;13.446;2022-07-17T03:06:37;2.23;;;1.50;;
10142;SDS011;5112;54.088;13.446;2022-07-17T03:16:38;3.77;;;1.93;;
10142;SDS011;5112;54.088;13.446;2022-07-17T03:26:41;2.87;;;1.73;;
10142;SDS011;5112;54.088;13.446;2022-07-17T03:36:43;4.97;;;1.93;;
10142;SDS011;5112;54.088;13.446;2022-07-17T03:46:46;3.13;;;1.47;;
10142;SDS011;5112;54.088;13.446;2022-07-17T03:56:48;4.27;;;1.60;;
10142;SDS011;5112;54.088;13.446;2022-07-17T04:06:51;3.73;;;1.90;;
10142;SDS011;5112;54.088;13.446;2022-07-17T04:16:52;4.10;;;1.57;;
10142;SDS011;5112;54.088;13.446;2022-07-17T04:26:55;4.40;;;1.47;;
10142;SDS011;5112;54.088;13.446;2022-07-17T04:36:57;3.37;;;1.90;;
10142;SDS011;5112;54.088;13.446;2022-07-17T04:47:00;5.20;;;2.00;;
10142;SDS011;5112;54.088;13.446;2022-07-17T04:57:02;1.63;;;1.53;;
10142;SDS011;5112;54.088;13.446;2022-07-17T05:07:05;3.87;;;2.17;;
10142;SDS011;5112;54.088;13.446;2022-07-17T05:17:07;2.60;;;1.40;;
10142;SDS011;5112;54.088;13.446;2022-07-17T05:27:10;3.43;;;1.47;;
10142;SDS011;5112;54.088;13.446;2022-07-17T05:37:12;3.27;;;1.60;;
10142;SDS011;5112;54.088;13.446;2022-07-17T05:47:15;2.70;;;1.73;;
10142;SDS011;5112;54.088;13.446;2022-07-17T05:57:17;4.13;;;1.40;;
10142;SDS011;5112;54.088;13.446;2022-07-17T06:07:20;5.10;;;2.00;;
10142;SDS011;5112;54.088;13.446;2022-07-17T06:17:21;4.93;;;2.03;;
10142;SDS011;5112;54.088;13.446;2022-07-17T06:27:25;4.03;;;1.10;;
10142;SDS011;5112;54.088;13.446;2022-07-17T06:37:26;2.63;;;1.60;;
10142;SDS011;5112;54.088;13.446;2022-07-17T06:47:29;4.20;;;1.67;;
10142;SDS011;5112;54.088;13.446;2022-07-17T06:57:31;6.57;;;1.77;;
10142;SDS011;5112;54.088;13.446;2022-07-17T07:07:34;4.90;;;1.60;;
10142;SDS011;5112;54.088;13.446;2022-07-17T07:17:36;4.53;;;1.53;;
10142;SDS011;5112;54.088;13.446;2022-07-17T07:27:39;3.70;;;1.53;;
10142;SDS011;5112;54.088;13.446;2022-07-17T07:37:41;3.57;;;1.50;;
10142;SDS011;5112;54.088;13.446;2022-07-17T07:47:45;5.03;;;1.70;;
10142;SDS011;5112;54.088;13.446;2022-07-17T07:57:47;3.33;;;1.30;;
10142;SDS011;5112;54.088;13.446;2022-07-17T08:07:51;1.63;;;1.10;;
10142;SDS011;5112;54.088;13.446;2022-07-17T08:17:53;2.70;;;1.17;;
10142;SDS011;5112;54.088;13.446;2022-07-17T08:27:56;1.70;;;1.13;;
10142;SDS011;5112;54.088;13.446;2022-07-17T08:37:57;3.63;;;1.20;;
10142;SDS011;5112;54.088;13.446;2022-07-17T08:48:01;4.17;;;1.50;;
10142;SDS011;5112;54.088;13.446;2022-07-17T08:58:04;4.57;;;1.43;;
10142;SDS011;5112;54.088;13.446;2022-07-17T09:08:08;2.90;;;1.43;;
10142;SDS011;5112;54.088;13.446;2022-07-17T09:18:10;4.30;;;1.43;;
10142;SDS011;5112;54.088;13.446;2022-07-17T09:28:14;3.47;;;1.50;;
10142;SDS011;5112;54.088;13.446;2022-07-17T09:38:27;4.20;;;1.30;;
10142;SDS011;5112;54.088;13.446;2022-07-17T09:48:31;2.40;;;1.50;;
10142;SDS011;5112;54.088;13.446;2022-07-17T09:58:34;3.53;;;1.70;;
10142;SDS011;5112;54.088;13.446;2022-07-17T10:08:41;2.80;;;1.53;;
10142;SDS011;5112;54.088;13.446;2022-07-17T10:18:44;5.60;;;1.53;;
10142;SDS011;5112;54.088;13.446;2022-07-17T10:28:47;3.77;;;1.50;;
10142;SDS011;5112;54.088;13.446;2022-07-17T10:38:49;3.47;;;1.43;;
10142;SDS011;5112;54.088;13.446;2022-07-17T10:48:53;4.30;;;1.77;;
10142;SDS011;5112;54.088;13.446;2022-07-17T10:59:00;2.43;;;1.20;;
10142;SDS011;5112;54.088;13.446;2022-07-17T11:09:05;1.87;;;1.20;;
10142;SDS011;5112;54.088;13.446;2022-07-17T11:19:08;4.10;;;1.40;;
10142;SDS011;5112;54.088;13.446;2022-07-17T11:29:11;2.50;;;1.43;;
10142;SDS011;5112;54.088;13.446;2022-07-17T11:39:16;2.20;;;1.00;;
10142;SDS011;5112;54.088;13.446;2022-07-17T11:49:24;1.63;;;1.07;;
10142;SDS011;5112;54.088;13.446;2022-07-17T11:59:27;2.73;;;1.20;;
10142;SDS011;5112;54.088;13.446;2022-07-17T12:09:32;1.40;;;1.13;;
10142;SDS011;5112;54.088;13.446;2022-07-17T12:19:34;3.57;;;1.70;;
10142;SDS011;5112;54.088;13.446;2022-07-17T12:29:37;1.57;;;1.47;;
10142;SDS011;5112;54.088;13.446;2022-07-17T12:39:40;1.53;;;1.00;;
10142;SDS011;5112;54.088;13.446;2022-07-17T12:49:43;1.20;;;1.07;;
10142;SDS011;5112;54.088;13.446;2022-07-17T12:59:44;2.03;;;1.17;;
10142;SDS011;5112;54.088;13.446;2022-07-17T13:09:47;1.67;;;1.23;;
10142;SDS011;5112;54.088;13.446;2022-07-17T13:19:49;1.73;;;0.70;;
10142;SDS011;5112;54.088;13.446;2022-07-17T13:29:52;2.07;;;0.80;;
10142;SDS011;5112;54.088;13.446;2022-07-17T13:39:54;1.43;;;1.00;;
10142;SDS011;5112;54.088;13.446;2022-07-17T13:49:57;1.30;;;1.20;;
10142;SDS011;5112;54.088;13.446;2022-07-17T13:59:58;1.17;;;1.10;;
10142;SDS011;5112;54.088;13.446;2022-07-17T14:10:02;1.83;;;1.40;;
10142;SDS011;5112;54.088;13.446;2022-07-17T14:20:04;1.63;;;1.50;;
10142;SDS011;5112;54.088;13.446;2022-07-17T14:30:09;3.33;;;2.00;;
10142;SDS011;5112;54.088;13.446;2022-07-17T14:40:11;2.07;;;1.80;;
10142;SDS011;5112;54.088;13.446;2022-07-17T14:50:14;3.57;;;1.53;;
10142;SDS011;5112;54.088;13.446;2022-07-17T15:00:16;2.17;;;1.73;;
10142;SDS011;5112;54.088;13.446;2022-07-17T15:10:19;3.87;;;1.60;;
10142;SDS011;5112;54.088;13.446;2022-07-17T15:20:21;4.33;;;2.20;;
10142;SDS011;5112;54.088;13.446;2022-07-17T15:30:24;2.13;;;1.60;;
10142;SDS011;5112;54.088;13.446;2022-07-17T15:40:26;1.77;;;1.67;;
10142;SDS011;5112;54.088;13.446;2022-07-17T15:50:29;1.57;;;1.37;;
10142;SDS011;5112;54.088;13.446;2022-07-17T16:00:31;3.83;;;1.60;;
10142;SDS011;5112;54.088;13.446;2022-07-17T16:10:34;3.10;;;1.80;;
10142;SDS011;5112;54.088;13.446;2022-07-17T16:20:36;3.20;;;1.87;;
10142;SDS011;5112;54.088;13.446;2022-07-17T16:30:39;1.93;;;1.63;;
10142;SDS011;5112;54.088;13.446;2022-07-17T16:40:41;5.60;;;2.10;;
10142;SDS011;5112;54.088;13.446;2022-07-17T16:50:44;4.03;;;1.90;;
10142;SDS011;5112;54.088;13.446;2022-07-17T17:00:46;4.07;;;1.87;;
10142;SDS011;5112;54.088;13.446;2022-07-17T17:10:49;2.37;;;2.13;;
10142;SDS011;5112;54.088;13.446;2022-07-17T17:20:52;3.07;;;1.70;;
10142;SDS011;5112;54.088;13.446;2022-07-17T17:30:55;1.60;;;1.43;;
10142;SDS011;5112;54.088;13.446;2022-07-17T17:40:57;1.63;;;1.53;;
10142;SDS011;5112;54.088;13.446;2022-07-17T17:51:01;3.23;;;1.60;;
10142;SDS011;5112;54.088;13.446;2022-07-17T18:01:04;2.30;;;1.57;;
10142;SDS011;5112;54.088;13.446;2022-07-17T18:11:07;1.80;;;1.70;;
10142;SDS011;5112;54.088;13.446;2022-07-17T18:21:09;2.70;;;2.00;;
10142;SDS011;5112;54.088;13.446;2022-07-17T18:31:12;2.30;;;2.10;;
10142;SDS011;5112;54.088;13.446;2022-07-17T18:41:14;4.10;;;2.00;;
10142;SDS011;5112;54.088;13.446;2022-07-17T18:51:17;2.57;;;2.37;;
10142;SDS011;5112;54.088;13.446;2022-07-17T19:01:19;2.60;;;1.93;;
10142;SDS011;5112;54.088;13.446;2022-07-17T19:11:22;4.20;;;2.37;;
10142;SDS011;5112;54.088;13.446;2022-07-17T19:21:23;6.30;;;2.43;;
10142;SDS011;5112;54.088;13.446;2022-07-17T19:31:27;2.73;;;2.53;;
10142;SDS011;5112;54.088;13.446;2022-07-17T19:41:28;2.43;;;2.23;;
10142;SDS011;5112;54.088;13.446;2022-07-17T19:51:31;2.83;;;2.40;;
10142;SDS011;5112;54.088;13.446;2022-07-17T20:01:33;3.10;;;2.80;;
10142;SDS011;5112;54.088;13.446;2022-07-17T20:11:37;3.13;;;2.43;;
10142;SDS011;5112;54.088;13.446;2022-07-17T20:21:38;3.40;;;2.57;;
10142;SDS011;5112;54.088;13.446;2022-07-17T20:31:42;2.97;;;2.67;;
10142;SDS011;5112;54.088;13.446;2022-07-17T20:41:43;3.60;;;2.80;;
10142;SDS011;5112;54.088;13.446;2022-07-17T20:51:46;3.27;;;2.70;;
10142;SDS011;5112;54.088;13.446;2022-07-17T21:01:48;3.47;;;2.50;;
10142;SDS011;5112;54.088;13.446;2022-07-17T21:11:51;3.70;;;2.80;;
10142;SDS011;5112;54.088;13.446;2022-07-17T21:21:53;2.97;;;2.67;;
10142;SDS011;5112;54.088;13.446;2022-07-17T21:31:56;3.80;;;2.77;;
10142;SDS011;5112;54.088;13.446;2022-07-17T21:41:57;3.80;;;2.90;;
10142;SDS011;5112;54.088;13.446;2022-07-17T21:52:00;3.40;;;3.10;;
10142;SDS011;5112;54.088;13.446;2022-07-17T22:02:02;2.83;;;2.63;;
10142;SDS011;5112;54.088;13.446;2022-07-17T22:12:06;3.43;;;3.13;;
10142;SDS011;5112;54.088;13.446;2022-07-17T22:22:08;3.07;;;2.77;;
10142;SDS011;5112;54.088;13.446;2022-07-17T22:32:12;3.00;;;2.70;;
10142;SDS011;5112;54.088;13.446;2022-07-17T22:42:14;3.67;;;2.83;;
10142;SDS011;5112;54.088;13.446;2022-07-17T22:52:17;3.30;;;3.00;;
10142;SDS011;5112;54.088;13.446;2022-07-17T23:02:19;4.73;;;3.00;;
10142;SDS011;5112;54.088;13.446;2022-07-17T23:12:23;3.87;;;3.40;;
10142;SDS011;5112;54.088;13.446;2022-07-17T23:22:25;4.63;;;3.53;;
10142;SDS011;5112;54.088;13.446;2022-07-17T23:32:28;6.37;;;3.53;;
10142;SDS011;5112;54.088;13.446;2022-07-17T23:42:30;3.97;;;3.57;;
10142;SDS011;5112;54.088;13.446;2022-07-17T23:52:33;4.20;;;3.60;;
